KFBR

Fort Bridger Airport

Fort Bridger, Wyoming, USA
METAR KFBR 180235Z AUTO 27014G18KT 10SM CLR M05/M09 A3014 RMK AO2 T10501086
Observed Flight Rules
Dec-18 @ 02:35 UTC (23 minutes ago) Visual Flight Rules
Wind Visibility Clouds
270° at 14 knots
 Gusting to 18 knots
10 miles
  • Clear skies
Temperatures Readings
Current -5°C / 23°F
Dewpoint -9°C / 16°F
Humidity 74%
Altimeter 30.14" Hg
Pressure 1021 hPa
Elevation 2144
METAR KFBR 180235Z AUTO 27014G18KT 10SM CLR M05/M09 A3014 RMK AO2 T10501086
Observed Flight Rules
Dec-18 @ 02:35 UTC
(23 minutes ago)
VFR
Wind Visibility
270° at 14 knots
 Gusting to 18 knots
10 miles
Clouds
  • Clear skies
Temperature Dewpoint
-5°C / 23°F -9°C / 16°F
Humidity Altimeter Pressure
74% 30.14" Hg 1021 hPa